Time;durP1;ratioP1;P1;durP2;ratioP2;P2;SDS_P1;SDS_P2;PMS_P1;PMS_P2;Temp;Humidity;BMP_temperature;BMP_pressure;BME280_temperature;BME280_humidity;BME280_pressure;Samples;Min_cycle;Max_cycle;Signal;HPM_P1;HPM_P2
2022/04/11 00:02:00;;;;;;;3.10;2.80;;;;;;;19.89;37.30;100327.65;1640642;87;21390;-60
2022/04/11 00:04:28;;;;;;;3.20;2.47;;;;;;;19.87;37.30;100325.20;1640557;87;21013;-60
2022/04/11 00:06:54;;;;;;;3.33;2.90;;;;;;;19.87;37.31;100333.48;1640528;87;21114;-60
2022/04/11 00:09:20;;;;;;;2.75;2.55;;;;;;;19.87;37.32;100337.62;1640974;87;21018;-60
2022/04/11 00:11:49;;;;;;;2.92;2.37;;;;;;;19.87;37.30;100335.43;1640603;87;21953;-60
2022/04/11 00:14:21;;;;;;;2.92;2.58;;;;;;;19.86;37.31;100333.23;1640881;87;21348;-61
2022/04/11 00:16:47;;;;;;;2.90;2.58;;;;;;;19.86;37.30;100333.83;1640927;87;21157;-61
2022/04/11 00:19:13;;;;;;;3.25;2.85;;;;;;;19.86;37.29;100339.34;1640582;87;21011;-61
2022/04/11 00:21:39;;;;;;;3.20;2.90;;;;;;;19.84;37.26;100335.52;1640871;87;21006;-61
2022/04/11 00:24:06;;;;;;;3.02;2.70;;;;;;;19.86;37.30;100346.25;1640919;87;21243;-61
2022/04/11 00:26:32;;;;;;;3.52;2.25;;;;;;;19.86;37.30;100349.02;1640869;87;20930;-61
2022/04/11 00:28:58;;;;;;;3.08;2.37;;;;;;;19.86;37.29;100357.30;1641111;87;21149;-61
2022/04/11 00:31:24;;;;;;;2.95;2.40;;;;;;;19.85;37.30;100362.00;1641018;87;21102;-61
2022/04/11 00:33:51;;;;;;;3.52;2.92;;;;;;;19.84;37.30;100360.37;1640662;87;20912;-61
2022/04/11 00:36:17;;;;;;;2.75;2.33;;;;;;;19.84;37.28;100374.17;1641043;87;21833;-61
2022/04/11 00:38:49;;;;;;;2.80;2.27;;;;;;;19.85;37.30;100372.22;1640716;87;20943;-61
2022/04/11 00:41:15;;;;;;;2.80;2.17;;;;;;;19.84;37.29;100374.73;1641061;87;21043;-61
2022/04/11 00:43:41;;;;;;;3.65;2.30;;;;;;;19.84;37.29;100369.21;1640748;87;21006;-61
2022/04/11 00:46:08;;;;;;;2.62;2.20;;;;;;;19.83;37.31;100369.77;1641095;87;20987;-61
2022/04/11 00:48:35;;;;;;;3.02;2.12;;;;;;;19.83;37.28;100374.48;1640707;87;21927;-61
2022/04/11 00:51:19;;;;;;;2.87;2.20;;;;;;;19.82;37.29;100384.70;1614801;87;21073;-61
2022/04/11 00:53:46;;;;;;;2.45;2.15;;;;;;;19.82;37.31;100383.89;1640905;87;21013;-61
2022/04/11 00:56:18;;;;;;;2.80;2.40;;;;;;;19.81;37.30;100388.63;1640910;87;21058;-61
2022/04/11 00:58:44;;;;;;;3.27;2.27;;;;;;;19.82;37.31;100383.33;1641227;87;21494;-61
2022/04/11 01:01:10;;;;;;;2.92;2.17;;;;;;;19.82;37.31;100376.98;1640775;87;21908;-61
2022/04/11 01:03:36;;;;;;;2.62;2.20;;;;;;;19.81;37.33;100387.25;1640883;87;20891;-61
2022/04/11 01:06:03;;;;;;;2.72;2.00;;;;;;;19.80;37.32;100399.41;1640719;87;21442;-61
2022/04/11 01:08:29;;;;;;;2.80;2.17;;;;;;;19.80;37.33;100403.55;1640764;87;21151;-61
2022/04/11 01:10:55;;;;;;;2.40;1.82;;;;;;;19.80;37.33;100401.36;1641160;87;20947;-61
2022/04/11 01:13:21;;;;;;;3.22;2.08;;;;;;;19.80;37.32;100414.59;1640879;87;21341;-61
2022/04/11 01:16:00;;;;;;;2.58;2.20;;;;;;;19.80;37.34;100412.40;1640814;87;21399;-61
2022/04/11 01:18:27;;;;;;;4.33;2.12;;;;;;;19.80;37.32;100416.54;1640305;87;20936;-61
2022/04/11 01:20:53;;;;;;;2.40;2.20;;;;;;;19.79;37.30;100417.10;1640718;87;21063;-61
2022/04/11 01:23:25;;;;;;;2.15;1.95;;;;;;;19.79;37.28;100417.10;1640898;87;21364;-61
2022/04/11 01:25:52;;;;;;;2.35;2.00;;;;;;;19.78;37.27;100423.75;1641683;87;21061;-61
2022/04/11 01:28:19;;;;;;;2.50;2.12;;;;;;;19.78;37.29;100422.38;1644362;86;21408;-61
2022/04/11 01:30:53;;;;;;;2.80;2.08;;;;;;;19.78;37.30;100418.23;1644605;87;21022;-61
2022/04/11 01:33:28;;;;;;;3.00;2.20;;;;;;;19.78;37.29;100425.70;1644857;86;21035;-61
2022/04/11 01:35:54;;;;;;;2.27;1.80;;;;;;;19.77;37.28;100427.67;1644452;87;20982;-61
2022/04/11 01:38:20;;;;;;;2.77;2.05;;;;;;;19.77;37.30;100437.89;1644633;87;21828;-61
2022/04/11 01:40:49;;;;;;;2.10;1.80;;;;;;;19.77;37.28;100436.52;1644528;87;21038;-61
2022/04/11 01:43:15;;;;;;;2.12;1.82;;;;;;;19.77;37.29;100442.03;1644558;87;20993;-61
2022/04/11 01:45:41;;;;;;;2.25;1.85;;;;;;;19.77;37.29;100445.61;1644746;87;21285;-61
2022/04/11 01:48:14;;;;;;;2.12;1.90;;;;;;;19.75;37.30;100445.10;1644730;87;21051;-61
2022/04/11 01:50:40;;;;;;;2.67;1.60;;;;;;;19.75;37.29;100454.77;1644389;86;21340;-61
2022/04/11 01:53:11;;;;;;;2.58;1.82;;;;;;;19.74;37.31;100450.37;1644571;86;21033;-61
2022/04/11 01:55:38;;;;;;;2.10;1.77;;;;;;;19.76;37.33;100462.48;1644576;87;20947;-61
2022/04/11 01:58:05;;;;;;;3.15;2.30;;;;;;;19.74;37.31;100465.55;1644305;86;21018;-61
2022/04/11 02:00:32;;;;;;;1.90;1.67;;;;;;;19.74;37.31;100468.31;1644793;87;21006;-61
2022/04/11 02:02:59;;;;;;;2.17;1.90;;;;;;;19.74;37.33;100470.25;1644802;86;21054;-61
2022/04/11 02:05:26;;;;;;;2.00;1.80;;;;;;;19.74;37.33;100473.02;1644285;87;20975;-60
2022/04/11 02:07:53;;;;;;;2.22;1.98;;;;;;;19.74;37.31;100477.16;1644498;87;21023;-61
2022/04/11 02:10:20;;;;;;;2.00;1.80;;;;;;;19.74;37.31;100476.59;1644580;87;21057;-61
2022/04/11 02:12:47;;;;;;;2.35;1.80;;;;;;;19.74;37.31;100473.02;1644547;86;20987;-61
2022/04/11 02:15:13;;;;;;;2.15;1.80;;;;;;;19.73;37.34;100470.03;1644643;87;21336;-61
2022/04/11 02:17:40;;;;;;;2.15;1.77;;;;;;;19.73;37.34;100472.79;1644668;86;21033;-61
2022/04/11 02:20:07;;;;;;;2.27;1.60;;;;;;;19.73;37.33;100472.79;1644378;86;20982;-61
2022/04/11 02:22:57;;;;;;;1.80;1.55;;;;;;;19.72;37.34;100482.20;1644687;87;20987;-61
2022/04/11 02:25:26;;;;;;;2.70;2.15;;;;;;;19.72;37.37;100489.09;1643762;85;20953;-61
2022/04/11 02:27:57;;;;;;;2.72;1.60;;;;;;;19.70;37.34;100501.83;1640885;87;21335;-61
2022/04/11 02:30:24;;;;;;;3.10;1.95;;;;;;;19.71;37.32;100504.02;1641101;87;21015;-61
2022/04/11 02:32:51;;;;;;;2.60;1.80;;;;;;;19.70;37.32;100506.53;1640757;87;21439;-61
2022/04/11 02:35:17;;;;;;;2.45;1.72;;;;;;;19.69;37.31;100496.05;1641130;87;21026;-61
2022/04/11 02:37:46;;;;;;;2.20;1.80;;;;;;;19.68;37.32;100499.97;1641139;87;21555;-61
2022/04/11 02:40:14;;;;;;;2.45;1.72;;;;;;;19.68;37.30;100501.91;1640877;87;21750;-61
2022/04/11 02:42:44;;;;;;;2.65;1.80;;;;;;;19.66;37.29;100506.36;1641214;87;21085;-61
2022/04/11 02:45:11;;;;;;;2.35;1.67;;;;;;;19.67;37.29;100502.47;1641168;87;21051;-61
2022/04/11 02:47:37;;;;;;;3.10;1.67;;;;;;;19.67;37.29;100504.41;1640881;87;21054;-60
2022/04/11 02:50:05;;;;;;;2.33;1.70;;;;;;;19.66;37.30;100505.54;1640728;87;21047;-61
2022/04/11 02:52:31;;;;;;;2.50;1.70;;;;;;;19.65;37.26;100503.34;1641272;87;21132;-61
2022/04/11 02:54:57;;;;;;;2.62;1.85;;;;;;;19.66;37.25;100503.59;1640786;87;21027;-61
2022/04/11 02:57:23;;;;;;;2.17;1.60;;;;;;;19.66;37.26;100500.02;1641121;87;21026;-61
2022/04/11 02:59:50;;;;;;;2.52;2.10;;;;;;;19.65;37.26;100507.48;1641218;87;21486;-61
2022/04/11 03:02:16;;;;;;;2.30;1.70;;;;;;;19.64;37.23;100514.72;1641018;87;21042;-61
2022/04/11 03:04:42;;;;;;;2.33;1.90;;;;;;;19.64;37.23;100511.95;1641049;87;21465;-61
2022/04/11 03:07:08;;;;;;;2.15;1.65;;;;;;;19.64;37.20;100509.20;1641193;87;20927;-61
2022/04/11 03:09:34;;;;;;;2.50;1.50;;;;;;;19.63;37.22;100515.28;1640832;87;21423;-61
2022/04/11 03:12:00;;;;;;;2.15;1.30;;;;;;;19.63;37.23;100513.90;1641407;87;20899;-61
2022/04/11 03:14:27;;;;;;;2.65;1.30;;;;;;;19.63;37.20;100527.70;1641077;87;21032;-61
2022/04/11 03:16:53;;;;;;;2.15;1.42;;;;;;;19.63;37.18;100529.08;1640962;87;21202;-61
2022/04/11 03:19:20;;;;;;;2.37;1.50;;;;;;;19.61;37.18;100526.62;1641249;87;20954;-61
2022/04/11 03:21:52;;;;;;;1.70;1.50;;;;;;;19.62;37.18;100531.58;1641157;87;21027;-61
2022/04/11 03:24:18;;;;;;;2.30;1.52;;;;;;;19.61;37.18;100529.39;1641095;87;21038;-60
2022/04/11 03:26:44;;;;;;;2.02;1.62;;;;;;;19.60;37.16;100531.89;1640992;86;21019;-61
2022/04/11 03:29:10;;;;;;;2.65;1.77;;;;;;;19.61;37.15;100536.84;1641379;87;21313;-61
2022/04/11 03:31:36;;;;;;;2.00;1.55;;;;;;;19.61;37.16;100536.84;1640722;86;21030;-60
2022/04/11 03:34:02;;;;;;;3.72;1.35;;;;;;;19.60;37.15;100552.59;1641254;87;21502;-61
2022/04/11 03:36:28;;;;;;;2.67;1.70;;;;;;;19.60;37.14;100547.06;1640973;87;20910;-61
2022/04/11 03:38:54;;;;;;;1.80;1.27;;;;;;;19.60;37.13;100554.56;1640954;87;21049;-61
2022/04/11 03:41:20;;;;;;;2.37;1.50;;;;;;;19.60;37.12;100555.34;1641008;87;21113;-61
2022/04/11 03:43:46;;;;;;;1.67;1.40;;;;;;;19.60;37.10;100546.28;1640996;87;21034;-60
2022/04/11 03:46:12;;;;;;;1.80;1.40;;;;;;;19.60;37.10;100544.91;1640706;87;21007;-61
2022/04/11 03:48:38;;;;;;;2.25;1.50;;;;;;;19.59;37.10;100534.98;1641091;87;20979;-61
2022/04/11 03:51:04;;;;;;;1.90;1.50;;;;;;;19.59;37.06;100539.13;1641076;87;20923;-61
2022/04/11 03:53:30;;;;;;;1.70;1.35;;;;;;;19.60;37.05;100543.52;1640839;87;21163;-61
2022/04/11 03:55:56;;;;;;;3.67;1.40;;;;;;;19.60;37.06;100540.77;1640291;87;20908;-61
2022/04/11 03:58:22;;;;;;;2.35;1.37;;;;;;;19.59;37.03;100550.16;1639275;87;20942;-61
2022/04/11 04:00:48;;;;;;;2.08;1.37;;;;;;;19.59;37.03;100544.64;1639136;87;20966;-61
2022/04/11 04:03:17;;;;;;;2.25;1.27;;;;;;;19.58;37.06;100550.72;1640630;87;21042;-61
2022/04/11 04:05:46;;;;;;;1.90;1.50;;;;;;;19.60;37.03;100550.42;1640129;86;21313;-61
2022/04/11 04:08:12;;;;;;;1.80;1.27;;;;;;;19.59;37.01;100546.84;1636192;86;20965;-61
2022/04/11 04:10:40;;;;;;;1.62;1.25;;;;;;;19.62;37.01;100557.80;1640539;87;21334;-60
2022/04/11 04:13:07;;;;;;;2.70;1.30;;;;;;;19.63;37.01;100558.06;1639351;87;21354;-61
2022/04/11 04:15:33;;;;;;;2.08;1.30;;;;;;;19.65;36.99;100564.65;1638985;87;21052;-61
2022/04/11 04:17:59;;;;;;;2.02;1.20;;;;;;;19.68;37.00;100577.25;1641903;85;21078;-61
2022/04/11 04:20:26;;;;;;;2.77;1.37;;;;;;;19.72;36.98;100575.48;1654682;84;21140;-61
2022/04/11 04:22:56;;;;;;;1.50;1.02;;;;;;;19.78;36.95;100583.03;1643331;85;21296;-61
2022/04/11 04:25:22;;;;;;;3.77;1.33;;;;;;;19.82;36.92;100584.03;1645167;87;21018;-61
2022/04/11 04:27:48;;;;;;;2.08;1.20;;;;;;;19.86;36.85;100588.60;1664172;84;21038;-60
2022/04/11 04:30:15;;;;;;;3.95;1.32;;;;;;;19.93;36.81;100595.06;1635531;85;21308;-60
2022/04/11 04:32:41;;;;;;;2.40;1.65;;;;;;;19.99;36.75;100600.67;1664290;84;21281;-60
2022/04/11 04:35:09;;;;;;;2.72;1.47;;;;;;;20.05;36.71;100607.14;1630437;86;21068;-60
2022/04/11 04:37:35;;;;;;;2.98;1.90;;;;;;;20.14;36.67;100602.22;1657509;84;21314;-60
2022/04/11 04:40:02;;;;;;;4.97;2.00;;;;;;;20.22;36.59;100606.95;1659302;84;20994;-59
2022/04/11 04:42:28;;;;;;;5.03;2.27;;;;;;;20.29;36.51;100611.44;1653034;84;21029;-59
2022/04/11 04:44:54;;;;;;;3.25;2.35;;;;;;;20.36;36.46;100615.98;1655166;84;20964;-59
2022/04/11 04:47:20;;;;;;;5.00;3.05;;;;;;;20.40;36.39;100617.78;1651048;84;20975;-61
2022/04/11 04:49:53;;;;;;;7.05;3.37;;;;;;;20.46;36.36;100617.05;1654146;84;21770;-60
2022/04/11 04:52:19;;;;;;;6.03;2.60;;;;;;;20.50;36.34;100620.23;1652943;84;20886;-60
2022/04/11 04:54:45;;;;;;;8.15;2.58;;;;;;;20.56;36.41;100616.76;1656941;84;21200;-60
2022/04/11 04:57:12;;;;;;;5.65;3.77;;;;;;;20.59;36.47;100613.91;1655791;84;21353;-58
2022/04/11 04:59:38;;;;;;;7.92;3.72;;;;;;;20.63;36.51;100620.42;1652184;84;21017;-61
2022/04/11 05:02:04;;;;;;;10.68;4.90;;;;;;;20.68;36.48;100621.66;1657610;84;21032;-59
2022/04/11 05:04:31;;;;;;;9.95;5.15;;;;;;;20.71;36.49;100621.81;1654607;84;21090;-59
2022/04/11 05:06:57;;;;;;;12.65;7.12;;;;;;;20.74;36.49;100628.11;1625899;86;21181;-59
2022/04/11 05:09:23;;;;;;;6.53;4.92;;;;;;;20.76;36.52;100626.38;1638023;85;21247;-58
2022/04/11 05:11:49;;;;;;;11.60;4.85;;;;;;;20.77;36.54;100629.40;1657174;84;21100;-59
2022/04/11 05:14:21;;;;;;;10.50;4.85;;;;;;;20.78;36.58;100628.27;1656570;84;21080;-59
2022/04/11 05:16:47;;;;;;;8.85;4.22;;;;;;;20.82;36.62;100632.02;1634190;86;21831;-58
2022/04/11 05:19:13;;;;;;;9.13;5.87;;;;;;;20.83;36.65;100634.47;1636062;85;22215;-58
2022/04/11 05:21:42;;;;;;;6.37;4.42;;;;;;;20.85;36.64;100632.17;1660798;84;21545;-60
2022/04/11 05:24:08;;;;;;;8.20;4.42;;;;;;;20.88;36.66;100637.05;1657848;84;21127;-63
2022/04/11 05:26:35;;;;;;;10.80;4.40;;;;;;;20.91;36.66;100634.23;1662796;84;21017;-58
2022/04/11 05:29:03;;;;;;;9.83;4.67;;;;;;;20.93;36.67;100641.05;1627909;86;21017;-58
2022/04/11 05:31:28;;;;;;;10.28;4.80;;;;;;;20.95;36.67;100642.12;1640549;85;21117;-57
2022/04/11 05:33:54;;;;;;;6.62;4.37;;;;;;;20.96;36.67;100640.39;1645028;85;20992;-58
2022/04/11 05:36:21;;;;;;;10.88;4.87;;;;;;;21.01;36.69;100637.22;1664953;84;21428;-58
2022/04/11 05:38:47;;;;;;;8.38;4.70;;;;;;;21.02;36.69;100636.09;1663873;84;21107;-58
2022/04/11 05:41:14;;;;;;;7.50;4.83;;;;;;;21.04;36.67;100642.12;1652167;85;21421;-58
2022/04/11 05:43:41;;;;;;;8.08;4.67;;;;;;;21.06;36.65;100640.66;1638445;85;21045;-57
2022/04/11 05:46:07;;;;;;;8.60;4.78;;;;;;;21.08;36.65;100639.77;1642909;86;20966;-58
2022/04/11 05:48:34;;;;;;;9.30;4.95;;;;;;;21.09;36.64;100650.27;1649677;85;21323;-58
2022/04/11 05:51:00;;;;;;;8.18;4.42;;;;;;;21.10;36.60;100652.70;1664087;84;20918;-59
2022/04/11 05:53:26;;;;;;;9.23;5.42;;;;;;;21.11;36.58;100652.12;1657407;85;20957;-58
2022/04/11 05:55:53;;;;;;;12.28;4.80;;;;;;;21.14;36.63;100652.89;1643666;85;21021;-59
2022/04/11 05:58:19;;;;;;;12.55;5.35;;;;;;;21.16;36.70;100656.16;1666142;84;21393;-59
2022/04/11 06:00:45;;;;;;;16.07;5.67;;;;;;;21.18;36.78;100650.53;1658033;84;20976;-58
2022/04/11 06:03:11;;;;;;;10.20;5.37;;;;;;;21.23;36.80;100655.09;1657743;84;21477;-58
2022/04/11 06:05:37;;;;;;;13.62;4.75;;;;;;;21.25;36.80;100653.64;1650182;85;21420;-58
2022/04/11 06:08:04;;;;;;;12.25;6.05;;;;;;;21.25;36.93;100659.18;1618850;86;22187;-58
2022/04/11 06:10:30;;;;;;;15.90;5.17;;;;;;;21.25;36.98;100667.48;1649990;84;21049;-59
2022/04/11 06:12:57;;;;;;;15.90;5.60;;;;;;;21.24;37.00;100660.87;1647633;85;20941;-58
2022/04/11 06:15:23;;;;;;;10.85;5.25;;;;;;;21.25;36.99;100659.75;1651531;85;20918;-59
2022/04/11 06:17:49;;;;;;;16.35;5.60;;;;;;;21.25;37.00;100659.18;1657901;84;20929;-58
2022/04/11 06:20:16;;;;;;;13.85;5.08;;;;;;;21.25;37.04;100652.83;1660498;85;22432;-59
2022/04/11 06:22:42;;;;;;;10.82;4.95;;;;;;;21.28;37.04;100652.16;1665396;84;20921;-64
2022/04/11 06:25:14;;;;;;;13.38;5.03;;;;;;;21.29;37.03;100653.23;1663910;84;20929;-62
2022/04/11 06:27:40;;;;;;;10.48;4.45;;;;;;;21.32;37.03;100658.11;1671278;85;20971;-62
2022/04/11 06:30:07;;;;;;;18.67;4.67;;;;;;;21.34;37.02;100661.34;1663846;84;21010;-60
2022/04/11 06:32:33;;;;;;;15.10;5.10;;;;;;;21.36;37.04;100663.23;1663286;84;20952;-59
2022/04/11 06:34:59;;;;;;;10.13;5.15;;;;;;;21.38;37.04;100665.69;1655448;84;20925;-61
2022/04/11 06:37:26;;;;;;;8.80;5.10;;;;;;;21.38;37.05;100660.97;1664709;84;21427;-60
2022/04/11 06:39:52;;;;;;;10.45;5.10;;;;;;;21.40;37.05;100659.24;1660266;84;20999;-59
2022/04/11 06:42:19;;;;;;;9.30;5.08;;;;;;;21.42;37.04;100669.43;1656513;84;21125;-61
2022/04/11 06:44:45;;;;;;;12.18;5.60;;;;;;;21.43;37.03;100673.80;1626955;86;21501;-60
2022/04/11 06:47:11;;;;;;;11.90;4.80;;;;;;;21.43;37.03;100677.16;1666335;84;21010;-58
2022/04/11 06:49:38;;;;;;;7.72;4.58;;;;;;;21.45;37.00;100681.22;1649260;84;20988;-59
2022/04/11 06:52:05;;;;;;;9.08;4.75;;;;;;;21.46;37.01;100680.09;1652405;84;21092;-60
2022/04/11 06:54:32;;;;;;;22.62;5.53;;;;;;;21.48;37.06;100693.02;1652534;84;20995;-59
2022/04/11 06:56:58;;;;;;;20.30;5.75;;;;;;;21.50;37.15;100690.75;1638549;85;21880;-58
2022/04/11 06:59:24;;;;;;;20.27;6.50;;;;;;;21.54;37.33;100686.76;1635362;85;21063;-58
2022/04/11 07:01:53;;;;;;;22.75;6.55;;;;;;;21.56;37.37;100694.97;1657865;84;21293;-58
2022/04/11 07:04:20;;;;;;;23.07;5.42;;;;;;;21.57;37.50;100693.83;1660821;84;21085;-57
2022/04/11 07:06:46;;;;;;;16.67;5.75;;;;;;;21.58;37.58;100689.11;1658172;84;20919;-57
2022/04/11 07:09:12;;;;;;;26.80;5.65;;;;;;;21.59;37.64;100691.56;1644621;85;21124;-57
2022/04/11 07:11:38;;;;;;;18.60;5.80;;;;;;;21.61;37.69;100696.19;1658534;84;21051;-57
2022/04/11 07:14:05;;;;;;;18.37;5.12;;;;;;;21.62;37.75;100701.98;1663217;85;20865;-57
2022/04/11 07:16:31;;;;;;;18.05;5.30;;;;;;;21.64;37.79;100703.83;1655018;84;20880;-57
2022/04/11 07:18:57;;;;;;;14.87;4.97;;;;;;;21.65;37.85;100712.95;1658309;84;21321;-57
2022/04/11 07:21:24;;;;;;;17.77;4.60;;;;;;;21.64;37.83;100705.22;1639978;85;21152;-57
2022/04/11 07:23:50;;;;;;;19.10;5.25;;;;;;;21.66;37.87;100714.03;1628287;86;22164;-57
2022/04/11 07:26:16;;;;;;;20.10;5.70;;;;;;;21.68;37.91;100720.06;1661475;84;20969;-57
2022/04/11 07:28:43;;;;;;;21.70;5.30;;;;;;;21.70;37.92;100718.33;1652976;84;21067;-58
2022/04/11 07:31:09;;;;;;;20.23;5.58;;;;;;;21.70;37.94;100716.95;1634078;85;21298;-58
2022/04/11 07:33:35;;;;;;;10.68;5.55;;;;;;;21.73;37.94;100717.67;1630919;86;21147;-58
2022/04/11 07:36:02;;;;;;;11.85;5.20;;;;;;;21.74;37.94;100718.73;1618796;87;21463;-58
2022/04/11 07:38:28;;;;;;;12.88;5.00;;;;;;;21.73;37.95;100725.41;1652085;85;21120;-58
2022/04/11 07:40:54;;;;;;;15.10;5.40;;;;;;;21.73;37.96;100718.48;1653869;85;21443;-58
2022/04/11 07:43:20;;;;;;;13.58;5.35;;;;;;;21.75;37.96;100720.38;1619215;87;21076;-58
2022/04/11 07:45:46;;;;;;;14.78;6.08;;;;;;;21.76;37.99;100730.31;1630056;86;21709;-58
2022/04/11 07:48:12;;;;;;;17.17;5.20;;;;;;;21.76;37.97;100725.34;1632206;86;21047;-58
2022/04/11 07:50:39;;;;;;;17.98;5.85;;;;;;;21.76;38.00;100730.31;1627754;86;21538;-57
2022/04/11 07:53:05;;;;;;;19.52;5.75;;;;;;;21.77;38.09;100736.08;1632007;86;21152;-57
2022/04/11 07:55:33;;;;;;;28.73;5.12;;;;;;;21.80;38.30;100729.09;1631723;86;22080;-57
2022/04/11 07:57:59;;;;;;;27.65;5.17;;;;;;;21.79;38.34;100723.30;1614289;87;21065;-57
2022/04/11 08:00:27;;;;;;;15.53;5.20;;;;;;;21.79;38.48;100726.06;1647890;85;38564;-58
2022/04/11 08:03:00;;;;;;;17.77;5.10;;;;;;;21.81;38.53;100730.12;1656262;85;21412;-58
2022/04/11 08:05:26;;;;;;;33.42;5.90;;;;;;;21.82;38.66;100729.56;1657573;85;21973;-57
2022/04/11 08:07:52;;;;;;;23.67;5.17;;;;;;;21.84;38.70;100732.83;1654962;85;20996;-57
2022/04/11 08:10:18;;;;;;;24.52;5.45;;;;;;;21.85;38.70;100724.77;1650712;85;21435;-58
2022/04/11 08:12:55;;;;;;;28.15;5.53;;;;;;;21.85;38.75;100732.48;1647674;85;21339;-57
2022/04/11 08:15:21;;;;;;;28.00;5.47;;;;;;;21.86;38.82;100727.19;1619449;86;21115;-58
2022/04/11 08:17:47;;;;;;;20.40;5.78;;;;;;;21.86;38.86;100723.61;1621353;86;21543;-59
2022/04/11 08:20:16;;;;;;;22.73;5.53;;;;;;;21.88;38.88;100728.27;1625331;86;21003;-56
2022/04/11 08:22:43;;;;;;;24.18;5.67;;;;;;;21.89;38.85;100724.36;1635314;86;21111;-57
2022/04/11 08:25:09;;;;;;;19.77;5.40;;;;;;;21.91;38.88;100721.23;1624914;86;21059;-57
2022/04/11 08:27:35;;;;;;;25.97;6.15;;;;;;;21.92;38.89;100722.34;1620553;86;22587;-58
2022/04/11 08:30:06;;;;;;;17.52;6.37;;;;;;;21.93;38.89;100731.47;1633763;85;20956;-58
2022/04/11 08:32:47;;;;;;;15.90;6.95;;;;;;;21.93;38.92;100732.84;1627187;85;20942;-57
2022/04/11 08:35:14;;;;;;;18.10;6.53;;;;;;;21.93;38.96;100735.05;1633705;86;21165;-58
2022/04/11 08:37:41;;;;;;;18.15;6.10;;;;;;;21.93;38.96;100737.82;1636952;86;20930;-58
2022/04/11 08:40:10;;;;;;;23.22;6.58;;;;;;;21.92;38.96;100735.34;1630817;86;21817;-57
2022/04/11 08:42:40;;;;;;;18.55;5.62;;;;;;;21.91;39.09;100735.09;1626539;86;22317;-58
2022/04/11 08:45:07;;;;;;;27.27;6.33;;;;;;;21.88;39.23;100740.16;1631757;86;21366;-59
2022/04/11 08:47:34;;;;;;;21.65;5.85;;;;;;;21.79;39.09;100740.73;1628668;86;21085;-58
2022/04/11 08:50:04;;;;;;;25.52;5.53;;;;;;;21.74;39.16;100733.97;1625200;86;21310;-58
2022/04/11 08:52:31;;;;;;;21.73;5.83;;;;;;;21.71;39.12;100735.20;1639577;86;20929;-58
2022/04/11 08:54:57;;;;;;;20.48;5.50;;;;;;;21.65;39.18;100740.08;1629153;86;20982;-59
2022/04/11 08:57:23;;;;;;;25.95;5.42;;;;;;;21.60;39.03;100738.06;1630482;86;20969;-58
2022/04/11 08:59:50;;;;;;;27.93;4.83;;;;;;;21.56;39.08;100736.48;1624750;86;21095;-59
2022/04/11 09:02:16;;;;;;;25.35;5.30;;;;;;;21.53;39.21;100733.00;1628275;87;21531;-58
2022/04/11 09:04:56;;;;;;;19.50;4.62;;;;;;;21.53;39.35;100741.30;1629891;86;20932;-59
2022/04/11 09:07:23;;;;;;;16.15;5.53;;;;;;;21.50;39.24;100743.91;1628231;86;21437;-57
2022/04/11 09:09:49;;;;;;;17.30;5.05;;;;;;;21.44;39.16;100743.25;1630028;86;21186;-58
2022/04/11 09:12:20;;;;;;;20.43;5.58;;;;;;;21.40;39.14;100745.03;1633001;86;21166;-58
2022/04/11 09:14:56;;;;;;;15.98;4.78;;;;;;;21.39;39.24;100747.55;1639752;86;20933;-58
2022/04/11 09:17:23;;;;;;;14.38;5.28;;;;;;;21.38;39.29;100752.30;1608446;87;21041;-58
2022/04/11 09:20:10;;;;;;;16.55;4.97;;;;;;;21.38;39.28;100757.02;1595605;86;21418;-58
2022/04/11 09:22:36;;;;;;;10.40;4.67;;;;;;;21.37;39.30;100760.35;1636438;86;20982;-59
2022/04/11 09:25:18;;;;;;;15.05;5.25;;;;;;;21.37;39.25;100756.20;1646057;85;22307;-59
2022/04/11 09:27:45;;;;;;;15.53;5.03;;;;;;;21.37;39.24;100755.38;1638525;86;20994;-59
2022/04/11 09:30:21;;;;;;;14.87;5.85;;;;;;;21.37;39.22;100761.73;1623756;86;20938;-59
2022/04/11 09:33:01;;;;;;;11.75;4.78;;;;;;;21.37;39.20;100765.89;1635082;86;21543;-62
2022/04/11 09:35:31;;;;;;;10.85;5.15;;;;;;;21.36;39.17;100767.02;1636399;85;20889;-61
2022/04/11 09:38:22;;;;;;;14.83;5.93;;;;;;;21.35;39.09;100769.53;1624377;86;21042;-62
2022/04/11 09:40:55;;;;;;;14.10;6.10;;;;;;;21.32;39.04;100772.95;1622279;86;20920;-62
2022/04/11 09:43:27;;;;;;;11.38;5.83;;;;;;;21.30;38.96;100772.45;1629840;86;20920;-62
2022/04/11 09:45:54;;;;;;;10.75;5.70;;;;;;;21.29;38.88;100776.94;1623645;86;20890;-62
2022/04/11 09:48:28;;;;;;;14.63;5.92;;;;;;;21.25;38.84;100778.16;1628176;86;21476;-62
2022/04/11 09:50:56;;;;;;;14.40;5.75;;;;;;;21.22;38.83;100781.55;1580186;89;22038;-63
2022/04/11 09:53:34;;;;;;;20.20;5.65;;;;;;;21.20;38.85;100782.45;1625873;87;20983;-60
2022/04/11 09:56:05;;;;;;;12.25;4.50;;;;;;;21.13;39.15;100783.48;1626739;86;20964;-60
2022/04/11 09:58:34;;;;;;;16.07;3.65;;;;;;;21.03;39.35;100789.30;1629239;86;21382;-60
2022/04/11 10:01:00;;;;;;;18.48;3.60;;;;;;;20.95;39.44;100784.55;1624895;87;20902;-60
2022/04/11 10:03:27;;;;;;;16.17;3.17;;;;;;;20.82;39.39;100778.00;1624307;86;21826;-63
2022/04/11 10:05:56;;;;;;;13.05;3.25;;;;;;;20.73;39.27;100774.95;1631003;86;20954;-64
2022/04/11 10:08:25;;;;;;;15.70;3.22;;;;;;;20.64;39.41;100783.20;1622495;86;21761;-62
2022/04/11 10:10:52;;;;;;;21.70;3.70;;;;;;;20.61;39.44;100778.31;1632627;86;21382;-62
2022/04/11 10:13:19;;;;;;;17.48;3.75;;;;;;;20.61;39.35;100776.94;1627177;86;20953;-60
2022/04/11 10:15:46;;;;;;;15.60;3.15;;;;;;;20.64;39.32;100785.14;1635144;86;21701;-59
2022/04/11 10:18:19;;;;;;;12.37;3.30;;;;;;;20.64;39.21;100787.91;1634600;86;21434;-61
2022/04/11 10:20:58;;;;;;;10.88;3.33;;;;;;;20.67;39.16;100790.85;1646188;86;20922;-61
2022/04/11 10:23:37;;;;;;;18.23;3.85;;;;;;;20.69;39.10;100789.98;1633057;86;20936;-60
2022/04/11 10:26:15;;;;;;;14.68;3.98;;;;;;;20.70;39.01;100783.89;1613237;88;21026;-60
2022/04/11 10:28:48;;;;;;;17.55;4.55;;;;;;;20.72;39.03;100788.52;1624296;86;21332;-61
2022/04/11 10:31:15;;;;;;;11.83;4.50;;;;;;;20.72;39.07;100785.19;1613669;88;20976;-61
2022/04/11 10:33:52;;;;;;;6.78;4.05;;;;;;;20.75;39.09;100783.75;1612878;88;20987;-60
2022/04/11 10:36:39;;;;;;;11.55;4.83;;;;;;;20.76;39.12;100779.83;1611878;88;20937;-62
2022/04/11 10:39:21;;;;;;;14.98;4.10;;;;;;;20.79;39.08;100784.74;1611569;87;21820;-58
2022/04/11 10:42:06;;;;;;;11.40;4.30;;;;;;;20.82;39.07;100780.77;1610827;87;22369;-58
2022/04/11 10:44:54;;;;;;;14.70;4.12;;;;;;;20.87;39.02;100783.39;1611165;87;21605;-60
2022/04/11 10:47:31;;;;;;;10.18;4.12;;;;;;;20.93;38.99;100784.86;1607819;87;21096;-60
2022/04/11 10:50:06;;;;;;;12.05;4.37;;;;;;;21.02;38.96;100786.27;1613405;87;20937;-61
2022/04/11 10:52:39;;;;;;;18.80;4.08;;;;;;;21.08;38.90;100781.42;1597691;87;20945;-61
2022/04/11 10:55:19;;;;;;;18.80;4.12;;;;;;;21.16;38.85;100772.36;1587714;88;20957;-59
2022/04/11 10:57:57;;;;;;;21.20;4.20;;;;;;;21.22;38.76;100773.81;1588192;88;21351;-59
2022/04/11 11:00:33;;;;;;;12.50;3.22;;;;;;;21.23;38.58;100778.22;1613475;87;20965;-59
2022/04/11 11:03:06;;;;;;;15.48;3.08;;;;;;;21.26;38.34;100775.61;1611361;87;20955;-59
2022/04/11 11:05:47;;;;;;;20.77;3.80;;;;;;;21.29;38.06;100780.53;1614152;87;20935;-58
2022/04/11 11:08:17;;;;;;;;;;;;;;;21.35;38.04;100781.17;1614129;88;21040;-58
2022/04/11 11:11:00;;;;;;;10.72;3.17;;;;;;;21.41;38.11;100778.50;1632246;86;20129;-59
2022/04/11 11:13:41;;;;;;;14.63;4.10;;;;;;;21.46;38.08;100778.92;1631524;86;20903;-59
2022/04/11 11:16:10;;;;;;;;;;;;;;;21.52;38.08;100779.80;1630585;86;21439;-58
2022/04/11 11:18:51;;;;;;;18.52;4.30;;;;;;;21.58;38.16;100781.86;1624636;86;20206;-59
2022/04/11 11:21:29;;;;;;;20.80;4.20;;;;;;;21.64;38.10;100787.49;1649162;86;21140;-57
2022/04/11 11:24:10;;;;;;;19.25;4.53;;;;;;;21.68;38.15;100781.55;1647962;86;21069;-58
2022/04/11 11:26:45;;;;;;;;;;;;;;;21.73;38.19;100783.56;1617924;86;21054;-58
2022/04/11 11:29:18;;;;;;;16.00;4.28;;;;;;;21.77;38.31;100779.56;1588121;87;21071;-57